Time;durP1;ratioP1;P1;durP2;ratioP2;P2;SDS_P1;SDS_P2;PMS_P1;PMS_P2;Temp;Humidity;BMP_temperature;BMP_pressure;BME280_temperature;BME280_humidity;BME280_pressure;Samples;Min_cycle;Max_cycle;Signal;HPM_P1;HPM_P2
2022/08/23 00:01:22;;;;;;;1.38;1.27;;;16.10;99.90;;;;;;4981189;28;20015;-81
2022/08/23 00:03:48;;;;;;;1.30;1.20;;;16.10;99.90;;;;;;4964410;28;20020;-82
2022/08/23 00:06:15;;;;;;;1.60;1.20;;;16.10;99.90;;;;;;4985881;28;20019;-79
2022/08/23 00:08:41;;;;;;;1.80;1.50;;;16.10;99.90;;;;;;4979962;28;20026;-80
2022/08/23 00:11:43;;;;;;;1.45;1.30;;;16.10;99.90;;;;;;5000440;28;20034;-81
2022/08/23 00:14:29;;;;;;;1.30;1.20;;;16.10;99.90;;;;;;4999426;28;20086;-80
2022/08/23 00:16:55;;;;;;;;;;;16.10;99.90;;;;;;4961850;28;20035;-81
2022/08/23 00:19:22;;;;;;;1.15;1.05;;;16.20;99.90;;;;;;4944765;28;19913;-80
2022/08/23 00:21:50;;;;;;;1.27;1.00;;;16.20;99.90;;;;;;4961406;28;20064;-81
2022/08/23 00:24:17;;;;;;;1.73;1.17;;;16.20;99.90;;;;;;4961731;28;20016;-80
2022/08/23 00:26:55;;;;;;;1.15;1.00;;;16.20;99.90;;;;;;4980630;28;20027;-82
2022/08/23 00:29:22;;;;;;;1.55;0.98;;;16.30;99.90;;;;;;4982619;28;20045;-81
2022/08/23 00:31:48;;;;;;;1.50;0.90;;;16.30;99.90;;;;;;4983252;28;20007;-81
2022/08/23 00:34:15;;;;;;;0.73;0.73;;;16.30;99.90;;;;;;4995481;28;20055;-83
2022/08/23 00:36:41;;;;;;;1.52;1.15;;;16.20;99.90;;;;;;4962870;28;20015;-83
2022/08/23 00:39:07;;;;;;;1.02;0.93;;;16.20;99.90;;;;;;4981430;28;20031;-83
2022/08/23 00:41:34;;;;;;;1.08;1.00;;;16.20;99.90;;;;;;4988743;28;20070;-81
2022/08/23 00:47:38;;;;;;;0.82;0.82;;;16.20;99.90;;;;;;4998066;23;20047;-77
2022/08/23 00:50:15;;;;;;;0.70;0.70;;;16.20;99.90;;;;;;4974974;28;20034;-77
2022/08/23 00:52:55;;;;;;;0.70;0.70;;;16.20;99.90;;;;;;4958792;28;20139;-78
2022/08/23 00:55:21;;;;;;;1.38;1.10;;;16.20;99.90;;;;;;4979750;28;20030;-77
2022/08/23 00:57:47;;;;;;;1.08;0.70;;;16.20;99.90;;;;;;4994894;28;20027;-76
2022/08/23 01:00:13;;;;;;;0.90;0.90;;;16.20;99.90;;;;;;4979053;28;20038;-77
2022/08/23 01:02:41;;;;;;;0.70;0.70;;;16.20;99.90;;;;;;4972745;28;20022;-77
2022/08/23 01:05:07;;;;;;;0.70;0.70;;;16.20;99.90;;;;;;5004900;28;20074;-78
2022/08/23 01:07:50;;;;;;;3.10;0.60;;;16.20;99.90;;;;;;5005493;28;20026;-78
2022/08/23 01:10:29;;;;;;;2.22;0.75;;;16.30;99.90;;;;;;4986674;28;20058;-78
2022/08/23 01:13:03;;;;;;;1.15;0.80;;;16.30;99.90;;;;;;4997315;28;20033;-78
2022/08/23 01:15:34;;;;;;;1.15;1.00;;;16.30;99.90;;;;;;4983363;28;20034;-77
2022/08/23 01:18:04;;;;;;;0.60;0.60;;;16.30;99.90;;;;;;4974736;28;20126;-78
2022/08/23 01:20:53;;;;;;;0.90;0.90;;;16.30;99.90;;;;;;5006299;28;20086;-77
2022/08/23 01:23:41;;;;;;;0.55;0.50;;;16.30;99.90;;;;;;5006740;28;20041;-79
2022/08/23 01:26:08;;;;;;;0.80;0.80;;;16.30;99.90;;;;;;4971022;28;20027;-77
2022/08/23 01:28:38;;;;;;;0.70;0.70;;;16.20;99.90;;;;;;4975623;28;20022;-77
2022/08/23 01:31:04;;;;;;;0.68;0.68;;;16.20;99.90;;;;;;4987960;28;20037;-77
2022/08/23 01:33:30;;;;;;;0.60;0.60;;;16.20;99.90;;;;;;4976110;28;20502;-77
2022/08/23 01:35:58;;;;;;;0.80;0.70;;;16.20;99.90;;;;;;4985293;28;20023;-78
2022/08/23 01:38:25;;;;;;;2.38;0.80;;;16.20;99.90;;;;;;4974706;28;20081;-78
2022/08/23 01:40:52;;;;;;;1.05;0.82;;;16.20;99.90;;;;;;4996631;28;20027;-78
2022/08/23 01:43:20;;;;;;;1.10;0.77;;;16.20;99.90;;;;;;4980238;28;20089;-77
2022/08/23 01:45:49;;;;;;;1.77;0.68;;;16.10;99.90;;;;;;4970485;28;20109;-78
2022/08/23 01:48:17;;;;;;;1.48;0.93;;;16.10;99.90;;;;;;4969734;28;20031;-79
2022/08/23 01:50:44;;;;;;;1.63;1.20;;;16.10;99.90;;;;;;4987862;28;20038;-77
2022/08/23 01:53:12;;;;;;;0.95;0.80;;;16.00;99.90;;;;;;4991269;28;20054;-78
2022/08/23 01:55:43;;;;;;;1.30;0.80;;;16.00;99.90;;;;;;4977555;28;20101;-77
2022/08/23 01:58:09;;;;;;;4.32;1.13;;;16.00;99.90;;;;;;4988162;28;20034;-77
2022/08/23 02:00:39;;;;;;;1.85;1.10;;;16.00;99.90;;;;;;4984878;28;20031;-78
2022/08/23 02:03:07;;;;;;;4.05;0.90;;;15.90;99.90;;;;;;4971350;28;20027;-78
2022/08/23 02:05:36;;;;;;;5.10;1.15;;;15.90;99.90;;;;;;4968131;28;20027;-77
2022/08/23 02:10:51;;;;;;;2.72;1.45;;;15.80;99.90;;;;;;4976973;28;20043;-78
2022/08/23 02:13:18;;;;;;;2.72;1.40;;;15.70;99.90;;;;;;4978808;28;20113;-78
2022/08/23 02:15:48;;;;;;;1.30;1.20;;;15.60;99.90;;;;;;4973885;28;20094;-77
2022/08/23 02:18:14;;;;;;;2.35;1.40;;;15.60;99.90;;;;;;4981019;28;20034;-78
2022/08/23 02:20:45;;;;;;;1.15;1.10;;;15.60;99.90;;;;;;4975911;28;20022;-77
2022/08/23 02:23:15;;;;;;;1.42;1.27;;;15.60;99.90;;;;;;4934309;28;20462;-79
2022/08/23 02:25:41;;;;;;;1.58;1.17;;;15.60;99.90;;;;;;4972352;28;20031;-78
2022/08/23 02:28:07;;;;;;;2.08;1.13;;;15.60;99.90;;;;;;4982530;28;20028;-78
2022/08/23 02:30:33;;;;;;;1.15;1.08;;;15.50;99.90;;;;;;5003465;28;20034;-78
2022/08/23 02:32:59;;;;;;;3.33;1.15;;;15.50;99.90;;;;;;4969065;28;20042;-77
2022/08/23 02:35:25;;;;;;;4.63;1.45;;;15.50;99.90;;;;;;4980472;28;20030;-78
2022/08/23 02:37:51;;;;;;;1.65;1.30;;;15.60;99.90;;;;;;4981385;28;20506;-78
2022/08/23 02:40:18;;;;;;;2.90;1.20;;;15.50;99.90;;;;;;4983355;28;20030;-77
2022/08/23 02:42:44;;;;;;;2.63;1.02;;;15.60;99.90;;;;;;4983522;28;20026;-78
2022/08/23 02:45:11;;;;;;;1.88;1.25;;;15.60;99.90;;;;;;4951991;29;20305;-78
2022/08/23 02:47:44;;;;;;;2.95;1.30;;;15.50;99.90;;;;;;4970889;28;20041;-78
2022/08/23 02:50:23;;;;;;;1.58;1.17;;;15.60;99.90;;;;;;4981145;28;20026;-76
2022/08/23 02:52:49;;;;;;;1.98;1.20;;;15.60;99.90;;;;;;4989122;28;20479;-77
2022/08/23 02:55:16;;;;;;;2.25;1.30;;;15.60;99.90;;;;;;4968324;28;20065;-77
2022/08/23 02:57:42;;;;;;;2.25;1.10;;;15.60;99.90;;;;;;4995651;28;20034;-77
2022/08/23 03:00:12;;;;;;;1.50;1.20;;;15.60;99.90;;;;;;4979027;28;20034;-76
2022/08/23 03:02:39;;;;;;;1.52;0.90;;;15.70;99.90;;;;;;4964171;28;20030;-78
2022/08/23 03:05:07;;;;;;;4.28;1.15;;;15.70;99.90;;;;;;4971776;28;20026;-77
2022/08/23 03:07:33;;;;;;;3.08;1.30;;;15.70;99.90;;;;;;4977085;28;20041;-78
2022/08/23 03:09:59;;;;;;;1.80;1.30;;;15.70;99.90;;;;;;4972405;28;20023;-78
2022/08/23 03:12:28;;;;;;;1.10;1.00;;;15.70;99.90;;;;;;4975737;28;20037;-78
2022/08/23 03:14:56;;;;;;;1.25;1.10;;;15.70;99.90;;;;;;4974229;28;20089;-78
2022/08/23 03:17:21;;;;;;;3.22;1.42;;;15.70;99.90;;;;;;4986027;28;20062;-78
2022/08/23 03:19:51;;;;;;;3.90;1.50;;;15.70;99.90;;;;;;4990112;28;20030;-78
2022/08/23 03:22:17;;;;;;;2.28;1.60;;;15.70;99.90;;;;;;4999169;28;20074;-77
2022/08/23 03:24:44;;;;;;;2.30;1.65;;;15.70;99.90;;;;;;4991732;28;20022;-77
2022/08/23 03:27:10;;;;;;;1.88;1.70;;;15.60;99.90;;;;;;4974573;28;20086;-76
2022/08/23 03:29:37;;;;;;;5.50;2.00;;;15.60;99.90;;;;;;4970568;28;20026;-76
2022/08/23 03:32:04;;;;;;;2.63;1.88;;;15.60;99.90;;;;;;4996632;28;20038;-76
2022/08/23 03:34:34;;;;;;;2.72;2.08;;;15.60;99.90;;;;;;4984382;28;20038;-75
2022/08/23 03:37:00;;;;;;;2.00;1.80;;;15.60;99.90;;;;;;4983455;28;20015;-75
2022/08/23 03:39:28;;;;;;;2.00;1.55;;;15.60;99.90;;;;;;4989550;28;20051;-76
2022/08/23 03:41:56;;;;;;;1.77;1.67;;;15.60;99.90;;;;;;5001744;28;20031;-77
2022/08/23 03:44:25;;;;;;;2.20;2.00;;;15.60;99.90;;;;;;4988455;28;20106;-76
2022/08/23 03:46:51;;;;;;;3.00;2.03;;;15.60;99.90;;;;;;4982851;28;20490;-76
2022/08/23 03:49:17;;;;;;;3.13;2.00;;;15.60;99.90;;;;;;4981606;28;20022;-77
2022/08/23 03:51:49;;;;;;;3.72;1.70;;;15.70;99.90;;;;;;5004137;28;20034;-77
2022/08/23 03:54:15;;;;;;;4.18;2.17;;;15.70;99.90;;;;;;4993921;28;20175;-77
2022/08/23 03:57:01;;;;;;;3.88;2.25;;;15.70;99.90;;;;;;4979394;28;20030;-78
2022/08/23 03:59:32;;;;;;;2.72;2.25;;;15.70;99.90;;;;;;4997050;28;20469;-77
2022/08/23 04:02:00;;;;;;;2.42;1.83;;;15.70;99.90;;;;;;4969067;28;20078;-77
2022/08/23 04:04:27;;;;;;;2.30;2.10;;;15.70;99.90;;;;;;4967666;28;20094;-78
2022/08/23 04:07:11;;;;;;;3.08;2.38;;;15.70;99.90;;;;;;4958182;29;20407;-79
2022/08/23 04:09:38;;;;;;;2.30;2.10;;;15.80;99.90;;;;;;4965144;28;20045;-78
2022/08/23 04:12:03;;;;;;;3.08;2.10;;;15.80;99.90;;;;;;4996201;28;20183;-77
2022/08/23 04:14:29;;;;;;;2.80;1.85;;;15.80;99.90;;;;;;4971327;28;20059;-78
2022/08/23 04:16:55;;;;;;;2.80;2.50;;;15.80;99.90;;;;;;4977666;28;20453;-77
2022/08/23 04:19:22;;;;;;;2.67;2.17;;;15.80;99.90;;;;;;4989391;28;20031;-78
2022/08/23 04:21:58;;;;;;;3.20;2.13;;;15.80;99.90;;;;;;4948812;28;20440;-78
2022/08/23 04:24:28;;;;;;;4.13;2.60;;;15.80;99.90;;;;;;4969574;28;20034;-78
2022/08/23 04:26:55;;;;;;;3.13;2.80;;;15.80;99.90;;;;;;4988515;28;20046;-77
2022/08/23 04:29:21;;;;;;;3.03;2.38;;;15.80;99.90;;;;;;4984381;28;20042;-78
2022/08/23 04:31:49;;;;;;;2.35;2.15;;;15.80;99.90;;;;;;4992981;28;20030;-77
2022/08/23 04:34:16;;;;;;;3.88;2.35;;;15.90;99.90;;;;;;4984737;28;20038;-77
2022/08/23 04:36:42;;;;;;;2.85;2.53;;;15.90;99.90;;;;;;4987790;28;20031;-78
2022/08/23 04:39:09;;;;;;;2.40;2.20;;;15.90;99.90;;;;;;5002278;28;20062;-78
2022/08/23 04:44:21;;;;;;;4.47;2.30;;;15.90;99.90;;;;;;4994328;28;20494;-77
2022/08/23 04:46:49;;;;;;;3.50;2.33;;;15.90;99.90;;;;;;4963976;28;20062;-78
2022/08/23 04:49:17;;;;;;;3.33;2.10;;;15.90;99.90;;;;;;4968317;28;20631;-76
2022/08/23 04:51:43;;;;;;;4.88;2.90;;;15.90;99.90;;;;;;4972240;28;20031;-77
2022/08/23 04:54:09;;;;;;;2.42;2.22;;;15.90;99.90;;;;;;4951631;29;20127;-78
2022/08/23 04:56:41;;;;;;;2.28;2.08;;;15.90;99.90;;;;;;4975082;28;20026;-78
2022/08/23 04:59:09;;;;;;;2.60;2.40;;;15.90;99.90;;;;;;4979325;28;20122;-78
2022/08/23 05:01:35;;;;;;;2.40;2.20;;;16.00;99.90;;;;;;4969037;28;20442;-79
2022/08/23 05:04:02;;;;;;;3.80;2.30;;;16.00;99.90;;;;;;4970054;28;20026;-79
2022/08/23 05:06:30;;;;;;;4.53;2.03;;;16.00;99.90;;;;;;4968534;28;20118;-79
2022/08/23 05:08:57;;;;;;;7.80;2.03;;;16.10;99.90;;;;;;4996897;28;20034;-79
2022/08/23 05:11:23;;;;;;;2.25;1.90;;;16.10;99.90;;;;;;4949596;28;20027;-78
2022/08/23 05:13:49;;;;;;;2.38;2.10;;;16.10;99.90;;;;;;4969004;28;20034;-78
2022/08/23 05:16:16;;;;;;;2.20;2.00;;;16.10;99.90;;;;;;4967682;28;20031;-80
2022/08/23 05:18:54;;;;;;;2.00;1.90;;;16.20;99.90;;;;;;4962362;28;20038;-81
2022/08/23 05:21:22;;;;;;;2.33;2.10;;;16.20;99.90;;;;;;4962429;28;20414;-82
2022/08/23 05:23:48;;;;;;;3.50;1.90;;;16.20;99.90;;;;;;4978237;28;20110;-80
2022/08/23 05:26:19;;;;;;;2.60;2.10;;;16.20;99.90;;;;;;4976986;28;20086;-81
2022/08/23 05:28:46;;;;;;;3.97;2.08;;;16.30;99.90;;;;;;4999990;28;20042;-79
2022/08/23 05:31:18;;;;;;;2.95;2.20;;;16.30;99.90;;;;;;4981770;28;20037;-81
2022/08/23 05:33:50;;;;;;;4.25;3.33;;;16.30;99.90;;;;;;4994078;28;20022;-79
2022/08/23 05:36:22;;;;;;;2.90;2.10;;;16.40;99.90;;;;;;4979123;28;20034;-79
2022/08/23 05:38:49;;;;;;;2.97;2.15;;;16.40;99.90;;;;;;4991391;28;20038;-79
2022/08/23 05:41:16;;;;;;;1.95;1.83;;;16.40;99.90;;;;;;4979951;28;20030;-79
2022/08/23 05:43:44;;;;;;;5.43;2.20;;;16.50;99.90;;;;;;4998757;28;20058;-79
2022/08/23 05:46:18;;;;;;;2.60;2.40;;;16.50;99.90;;;;;;4999781;28;20048;-78
2022/08/23 05:48:51;;;;;;;3.00;2.65;;;16.60;99.90;;;;;;5000168;28;20034;-79
2022/08/23 05:51:24;;;;;;;2.95;2.15;;;16.50;99.90;;;;;;5000641;28;20011;-79
2022/08/23 05:53:53;;;;;;;2.88;2.17;;;16.60;99.90;;;;;;4998354;28;20062;-80
2022/08/23 05:56:29;;;;;;;2.63;2.20;;;16.50;99.90;;;;;;4992240;28;20105;-79
2022/08/23 05:58:58;;;;;;;3.70;2.25;;;16.60;99.90;;;;;;4993261;28;20106;-81
2022/08/23 06:01:27;;;;;;;2.42;2.15;;;16.60;99.90;;;;;;4990452;28;20082;-79
2022/08/23 06:03:59;;;;;;;2.85;2.33;;;16.60;99.90;;;;;;4976641;28;20062;-77
2022/08/23 06:06:25;;;;;;;3.20;2.67;;;16.50;99.90;;;;;;4974135;28;20030;-79
2022/08/23 06:08:51;;;;;;;3.22;2.70;;;16.60;99.90;;;;;;4989641;28;20091;-79
2022/08/23 06:11:22;;;;;;;4.00;2.42;;;16.60;99.90;;;;;;4968298;28;20504;-79
2022/08/23 06:13:52;;;;;;;4.80;2.75;;;16.60;99.90;;;;;;4981930;28;20030;-81
2022/08/23 06:16:21;;;;;;;5.05;2.33;;;16.60;99.90;;;;;;4964282;28;20130;-78
2022/08/23 06:18:48;;;;;;;3.63;2.67;;;16.70;99.90;;;;;;4963252;28;20061;-80
2022/08/23 06:21:41;;;;;;;3.22;2.92;;;16.70;99.90;;;;;;4950591;28;20082;-79
2022/08/23 06:24:07;;;;;;;3.78;3.15;;;16.80;99.90;;;;;;4993897;28;20047;-78
2022/08/23 06:26:42;;;;;;;4.13;2.88;;;16.80;99.90;;;;;;4949964;29;20031;-79
2022/08/23 06:29:11;;;;;;;4.35;2.90;;;16.80;99.90;;;;;;4960305;28;20082;-82
2022/08/23 06:31:45;;;;;;;6.18;2.75;;;16.80;99.90;;;;;;4945974;28;20102;-79
2022/08/23 06:34:32;;;;;;;5.22;2.67;;;16.90;99.90;;;;;;4962692;28;20065;-78
2022/08/23 06:37:13;;;;;;;2.72;2.38;;;17.10;99.90;;;;;;4975454;28;20073;-79
2022/08/23 06:39:57;;;;;;;3.35;2.22;;;17.10;99.90;;;;;;4981501;28;20168;-80
2022/08/23 06:42:44;;;;;;;3.42;2.00;;;17.10;99.90;;;;;;4981687;28;20038;-80
2022/08/23 06:45:10;;;;;;;4.45;2.20;;;17.20;99.90;;;;;;4965130;28;20062;-79
2022/08/23 06:47:39;;;;;;;2.17;1.98;;;17.10;99.90;;;;;;4936447;29;20031;-81
2022/08/23 06:50:06;;;;;;;2.42;2.22;;;17.10;99.90;;;;;;4954726;29;20032;-85
2022/08/23 06:53:02;;;;;;;4.43;2.10;;;17.20;99.90;;;;;;4153640;26;20030;-87
2022/08/23 06:55:48;;;;;;;2.00;1.60;;;17.30;99.90;;;;;;4975227;28;20094;-86
2022/08/23 06:58:29;;;;;;;2.67;2.10;;;17.20;99.90;;;;;;4991300;28;20086;-87
2022/08/23 07:01:33;;;;;;;2.35;2.00;;;17.20;99.90;;;;;;5016380;28;20037;-85
2022/08/23 07:04:08;;;;;;;2.22;1.60;;;17.20;99.90;;;;;;4982540;28;20022;-85
2022/08/23 07:07:00;;;;;;;2.25;2.00;;;17.30;99.90;;;;;;4998000;28;20037;-85
2022/08/23 07:09:31;;;;;;;2.20;1.90;;;17.40;99.90;;;;;;4980085;28;20129;-86
2022/08/23 07:11:59;;;;;;;3.15;2.33;;;17.40;99.90;;;;;;4982124;28;20041;-84
2022/08/23 07:14:27;;;;;;;2.17;1.98;;;17.50;99.90;;;;;;4985112;28;20041;-85
2022/08/23 07:17:00;;;;;;;1.73;1.63;;;17.60;99.90;;;;;;4996837;28;20092;-86
2022/08/23 07:19:29;;;;;;;1.40;1.30;;;17.70;99.90;;;;;;4982418;28;20035;-85
2022/08/23 07:21:58;;;;;;;3.38;1.92;;;17.90;99.90;;;;;;4995985;28;20045;-87
2022/08/23 07:24:28;;;;;;;1.80;1.70;;;18.00;99.90;;;;;;4998941;28;20031;-86
2022/08/23 07:26:55;;;;;;;2.10;1.90;;;18.10;99.90;;;;;;5002881;28;20006;-83
2022/08/23 07:29:22;;;;;;;1.83;1.67;;;18.20;99.90;;;;;;4985727;28;20026;-83
2022/08/23 07:31:58;;;;;;;2.30;1.23;;;18.40;99.90;;;;;;5000245;28;20050;-84
2022/08/23 07:34:30;;;;;;;2.08;1.45;;;18.50;99.90;;;;;;4982258;28;20019;-85
2022/08/23 07:36:56;;;;;;;2.15;1.40;;;18.60;99.90;;;;;;4981360;28;20031;-85
2022/08/23 07:39:25;;;;;;;2.17;1.48;;;18.80;99.90;;;;;;4980204;28;20112;-83
2022/08/23 07:41:51;;;;;;;1.45;1.35;;;18.90;99.90;;;;;;4982851;28;20050;-83
2022/08/23 07:44:22;;;;;;;2.35;1.40;;;18.70;99.90;;;;;;4983667;28;20027;-85
2022/08/23 07:46:57;;;;;;;1.50;1.38;;;18.70;99.90;;;;;;4961253;28;20474;-85
2022/08/23 07:49:26;;;;;;;1.48;1.30;;;18.70;99.90;;;;;;4975173;28;20497;-85
2022/08/23 07:51:58;;;;;;;3.38;1.50;;;18.70;99.90;;;;;;4975950;28;20418;-84
2022/08/23 07:54:36;;;;;;;2.20;1.30;;;18.80;99.90;;;;;;4984933;28;20018;-83
2022/08/23 07:57:12;;;;;;;1.30;1.15;;;18.90;99.90;;;;;;4987853;28;20026;-87
2022/08/23 08:00:05;;;;;;;2.42;1.40;;;19.00;99.90;;;;;;4994900;28;20034;-86
2022/08/23 08:02:49;;;;;;;1.77;0.90;;;19.20;99.90;;;;;;4994821;28;20049;-89
2022/08/23 08:05:46;;;;;;;1.38;1.00;;;19.40;99.90;;;;;;4999124;28;20591;-85
2022/08/23 08:08:13;;;;;;;1.85;1.17;;;19.60;99.90;;;;;;4992587;28;20038;-85
2022/08/23 08:10:42;;;;;;;1.80;1.00;;;19.70;99.90;;;;;;4975098;28;20086;-85
2022/08/23 08:13:08;;;;;;;0.98;0.90;;;19.60;99.90;;;;;;4999551;28;20038;-84
2022/08/23 08:15:38;;;;;;;0.80;0.80;;;19.50;99.90;;;;;;4999926;28;20030;-86
2022/08/23 08:18:08;;;;;;;1.23;0.90;;;19.60;99.90;;;;;;4996070;28;20093;-85
2022/08/23 08:21:03;;;;;;;0.95;0.80;;;19.80;99.90;;;;;;4987970;28;20056;-87
2022/08/23 08:23:56;;;;;;;2.28;1.13;;;20.00;99.90;;;;;;4991070;28;20049;-85
2022/08/23 08:26:36;;;;;;;1.10;0.90;;;20.00;99.90;;;;;;4976312;28;20094;-85
2022/08/23 08:29:04;;;;;;;1.55;1.00;;;20.20;99.90;;;;;;4974652;28;20030;-87
2022/08/23 08:31:35;;;;;;;4.97;1.02;;;20.30;99.90;;;;;;4990795;28;20027;-87
2022/08/23 08:34:01;;;;;;;0.90;0.70;;;20.20;99.90;;;;;;4989550;28;20038;-87
2022/08/23 08:36:42;;;;;;;0.80;0.80;;;20.20;99.90;;;;;;4990221;28;20026;-88
2022/08/23 08:39:19;;;;;;;1.13;0.65;;;20.10;99.90;;;;;;4991132;28;20034;-88
2022/08/23 08:42:06;;;;;;;1.08;0.80;;;20.10;99.90;;;;;;4991893;28;20085;-88
2022/08/23 08:44:50;;;;;;;0.88;0.73;;;19.90;99.90;;;;;;4990730;28;20073;-88
2022/08/23 08:47:36;;;;;;;1.50;0.90;;;19.60;99.90;;;;;;4989846;28;20030;-86
2022/08/23 08:50:05;;;;;;;3.53;0.90;;;19.40;99.90;;;;;;4989909;28;20057;-87
2022/08/23 08:52:36;;;;;;;1.20;1.05;;;19.20;99.90;;;;;;4996314;28;20096;-84
2022/08/23 08:55:16;;;;;;;2.45;0.80;;;19.20;99.90;;;;;;5002559;28;20015;-83
2022/08/23 08:57:53;;;;;;;1.00;0.80;;;19.10;99.90;;;;;;5002133;28;20026;-83
2022/08/23 09:00:32;;;;;;;1.35;1.00;;;18.90;99.90;;;;;;5002043;28;20049;-84
2022/08/23 09:03:11;;;;;;;1.83;1.30;;;18.80;99.90;;;;;;5002201;28;20057;-83
2022/08/23 09:05:46;;;;;;;2.03;1.00;;;18.70;99.90;;;;;;5018834;28;20030;-81
2022/08/23 09:09:08;;;;;;;2.70;1.50;;;18.60;99.90;;;;;;5001160;28;20034;-82
2022/08/23 09:12:07;;;;;;;3.25;1.42;;;18.60;99.90;;;;;;5001276;28;20014;-84
2022/08/23 09:15:01;;;;;;;5.68;1.10;;;18.50;99.90;;;;;;4985547;28;20014;-84
2022/08/23 09:17:53;;;;;;;1.50;1.40;;;18.50;99.90;;;;;;5000259;28;20050;-85
2022/08/23 09:20:45;;;;;;;6.07;1.70;;;18.40;99.90;;;;;;4980392;28;20029;-84
2022/08/23 09:23:28;;;;;;;3.20;1.40;;;18.40;99.90;;;;;;4997701;28;20037;-84
2022/08/23 09:26:29;;;;;;;1.30;1.20;;;18.40;99.90;;;;;;4983270;28;20039;-84
2022/08/23 09:29:35;;;;;;;3.42;1.50;;;18.30;99.90;;;;;;4996069;28;20011;-86
2022/08/23 09:32:29;;;;;;;4.57;1.75;;;18.30;99.90;;;;;;4991053;28;20015;-88
2022/08/23 09:45:58;;;;;;;7.30;1.88;;;18.50;99.90;;;;;;4034231;26;20039;-84
2022/08/23 09:48:45;;;;;;;5.13;1.90;;;18.50;99.90;;;;;;4984575;28;20027;-84
2022/08/23 09:51:33;;;;;;;3.40;2.00;;;18.60;99.90;;;;;;4974324;28;20182;-86
2022/08/23 09:54:23;;;;;;;4.78;2.63;;;18.70;99.90;;;;;;4973269;29;20101;-85
2022/08/23 09:57:00;;;;;;;3.38;2.20;;;18.80;99.90;;;;;;4962094;28;20035;-84
2022/08/23 09:59:27;;;;;;;2.35;2.08;;;18.80;99.90;;;;;;4978082;28;20054;-84
2022/08/23 10:01:59;;;;;;;4.63;2.10;;;18.90;99.90;;;;;;4978211;28;20015;-84
2022/08/23 10:04:45;;;;;;;2.17;1.98;;;19.00;99.90;;;;;;4978066;28;20095;-83
2022/08/23 10:07:38;;;;;;;2.30;2.10;;;19.10;99.90;;;;;;4962062;28;20033;-87
2022/08/23 10:10:45;;;;;;;5.53;2.90;;;19.20;99.90;;;;;;4977646;28;20047;-86
2022/08/23 10:13:21;;;;;;;3.95;1.77;;;19.20;99.90;;;;;;4961447;28;20062;-85
2022/08/23 10:16:02;;;;;;;2.80;1.90;;;19.40;99.90;;;;;;4977108;28;20034;-88
2022/08/23 10:18:51;;;;;;;2.40;1.92;;;19.70;99.90;;;;;;4972883;28;20041;-87
2022/08/23 10:22:02;;;;;;;2.50;1.90;;;19.80;99.90;;;;;;4988859;28;20116;-88
2022/08/23 10:24:29;;;;;;;4.10;2.08;;;19.90;99.90;;;;;;4990342;28;20090;-85
2022/08/23 10:30:14;;;;;;;6.25;2.08;;;20.10;99.90;;;;;;4988382;28;20043;-86
2022/08/23 10:33:12;;;;;;;2.35;1.70;;;20.20;99.90;;;;;;4988121;28;20026;-88
2022/08/23 10:36:14;;;;;;;2.05;1.80;;;20.00;99.90;;;;;;4965932;28;20037;-88
2022/08/23 10:38:59;;;;;;;3.72;2.10;;;20.00;99.90;;;;;;4979510;28;20026;-88
2022/08/23 10:41:51;;;;;;;3.33;1.88;;;20.10;99.90;;;;;;4980138;28;20090;-89
2022/08/23 10:44:20;;;;;;;2.08;1.58;;;20.40;99.90;;;;;;4983883;28;20037;-88
2022/08/23 10:47:10;;;;;;;3.22;1.65;;;20.50;99.90;;;;;;4980757;28;20395;-85
2022/08/23 10:49:40;;;;;;;6.25;1.80;;;20.70;99.90;;;;;;4971759;28;20039;-84
2022/08/23 10:52:14;;;;;;;3.40;1.80;;;20.60;99.90;;;;;;4980936;28;20037;-87
2022/08/23 10:54:58;;;;;;;1.70;1.50;;;20.90;99.90;;;;;;4982299;28;20038;-86
2022/08/23 10:57:37;;;;;;;1.65;1.45;;;20.80;99.90;;;;;;4973178;28;20027;-84
2022/08/23 11:00:08;;;;;;;2.88;1.50;;;20.90;99.90;;;;;;4980284;28;20038;-88
2022/08/23 11:03:04;;;;;;;2.33;1.42;;;21.00;99.90;;;;;;4984635;28;20031;-85
2022/08/23 11:05:37;;;;;;;3.47;1.40;;;21.80;99.90;;;;;;4981602;28;20127;-87
2022/08/23 11:08:35;;;;;;;2.78;1.50;;;22.50;99.90;;;;;;4981831;28;20075;-88
2022/08/23 11:11:44;;;;;;;3.05;1.38;;;23.50;99.90;;;;;;4980280;28;20011;-85
2022/08/23 11:14:28;;;;;;;2.97;1.33;;;24.10;99.90;;;;;;4993294;28;20048;-86
2022/08/23 11:16:58;;;;;;;1.20;1.10;;;24.50;99.90;;;;;;5006329;28;20038;-84
2022/08/23 11:19:46;;;;;;;3.88;1.27;;;25.00;99.90;;;;;;4996196;28;20027;-85
2022/08/23 11:22:18;;;;;;;2.75;1.10;;;25.50;99.90;;;;;;4998868;28;20039;-88
2022/08/23 11:24:51;;;;;;;1.83;1.27;;;26.30;99.90;;;;;;4997338;28;20031;-86
2022/08/23 11:27:39;;;;;;;1.13;1.02;;;27.70;99.90;;;;;;4991145;28;20169;-87
2022/08/23 11:30:31;;;;;;;10.07;1.42;;;27.40;99.70;;;;;;4991363;28;20027;-87
2022/08/23 11:33:19;;;;;;;2.20;1.20;;;27.20;99.60;;;;;;4979074;28;20059;-86
2022/08/23 11:35:50;;;;;;;1.33;1.10;;;26.90;99.50;;;;;;4976945;29;20046;-83
2022/08/23 11:38:46;;;;;;;1.40;1.10;;;26.30;99.90;;;;;;4980019;28;20027;-84
2022/08/23 11:41:18;;;;;;;1.25;1.10;;;26.50;99.90;;;;;;4980899;28;20031;-84
2022/08/23 11:44:12;;;;;;;2.95;1.30;;;27.00;99.60;;;;;;4980342;28;20023;-84
2022/08/23 11:46:54;;;;;;;1.67;1.33;;;26.90;99.40;;;;;;4982979;28;20130;-83
2022/08/23 11:49:29;;;;;;;2.08;1.15;;;27.10;99.30;;;;;;4999605;28;20015;-84
2022/08/23 11:52:18;;;;;;;2.22;1.35;;;26.80;99.20;;;;;;4999774;28;20019;-85
2022/08/23 11:55:22;;;;;;;1.73;1.33;;;27.10;99.00;;;;;;4998921;28;20038;-87
2022/08/23 11:57:51;;;;;;;2.50;1.50;;;26.90;98.80;;;;;;4982381;28;20031;-86
2022/08/23 12:01:04;;;;;;;;;;;;;;;;;;;;;
2022/08/23 12:03:52;;;;;;;2.97;1.20;;;26.10;99.90;;;;;;4992880;28;20035;-87
2022/08/23 12:06:18;;;;;;;2.17;1.35;;;25.90;99.90;;;;;;4993026;28;20094;-87
2022/08/23 12:09:00;;;;;;;2.55;1.35;;;26.10;99.90;;;;;;4994079;28;20034;-87
2022/08/23 12:11:55;;;;;;;1.40;1.30;;;25.50;99.90;;;;;;4977532;28;20046;-87
2022/08/23 12:14:41;;;;;;;;;;;;;;;;;;;;;
2022/08/23 12:17:17;;;;;;;2.08;1.38;;;26.00;99.90;;;;;;4995355;28;20019;-87
2022/08/23 12:20:04;;;;;;;2.95;1.40;;;26.60;99.80;;;;;;4994239;28;20043;-88
2022/08/23 12:38:21;;;;;;;3.80;1.40;;;31.60;92.70;;;;;;4913360;29;20083;-91
2022/08/23 12:52:10;;;;;;;1.33;0.90;;;33.30;85.40;;;;;;4676254;23;20077;-83
2022/08/23 12:54:45;;;;;;;1.92;1.25;;;33.00;85.30;;;;;;5009727;28;20033;-82
2022/08/23 12:57:19;;;;;;;3.70;1.30;;;32.50;86.40;;;;;;5015374;28;20026;-82
2022/08/23 13:00:16;;;;;;;2.15;1.20;;;32.60;86.10;;;;;;5016671;28;20034;-82
2022/08/23 13:02:50;;;;;;;1.23;1.10;;;33.00;85.10;;;;;;4999131;28;20039;-82
2022/08/23 13:05:30;;;;;;;1.10;1.00;;;33.40;84.10;;;;;;5016305;28;20080;-83
2022/08/23 13:07:57;;;;;;;6.15;1.33;;;33.70;82.30;;;;;;5014173;28;20037;-84
2022/08/23 13:10:25;;;;;;;3.92;1.08;;;33.30;83.00;;;;;;5004280;28;20019;-82
2022/08/23 13:12:51;;;;;;;3.25;1.40;;;32.10;84.10;;;;;;5002709;28;20393;-83
2022/08/23 13:15:39;;;;;;;4.30;1.30;;;30.90;85.90;;;;;;4957939;28;20022;-82
2022/08/23 13:18:05;;;;;;;2.20;1.30;;;29.10;90.10;;;;;;4999012;28;20514;-83
2022/08/23 13:20:31;;;;;;;2.05;1.15;;;28.10;91.70;;;;;;5000811;28;20034;-84
2022/08/23 13:23:06;;;;;;;4.53;1.48;;;27.80;92.30;;;;;;5000859;28;20394;-82
2022/08/23 13:25:37;;;;;;;1.85;1.15;;;27.80;92.80;;;;;;4982076;28;20445;-83
2022/08/23 13:28:25;;;;;;;2.50;1.27;;;27.60;93.00;;;;;;5000375;28;20038;-82
2022/08/23 13:31:04;;;;;;;4.03;1.40;;;27.50;93.40;;;;;;4985899;28;20118;-83
2022/08/23 13:33:30;;;;;;;3.47;1.30;;;27.20;93.80;;;;;;5001149;28;20038;-84
2022/08/23 13:36:15;;;;;;;2.55;1.40;;;26.60;94.50;;;;;;4999663;28;20049;-84
2022/08/23 13:38:43;;;;;;;1.55;1.23;;;25.90;96.30;;;;;;5002812;28;20026;-83
2022/08/23 13:41:12;;;;;;;5.85;1.70;;;26.00;96.40;;;;;;5005115;28;20027;-80
2022/08/23 13:43:46;;;;;;;2.38;1.38;;;26.40;96.30;;;;;;5005566;28;20022;-81
2022/08/23 13:46:17;;;;;;;3.63;1.60;;;27.30;95.50;;;;;;4992868;28;20065;-80
2022/08/23 13:48:48;;;;;;;2.05;1.33;;;28.40;93.80;;;;;;5008434;28;20121;-81
2022/08/23 13:51:23;;;;;;;2.45;1.35;;;28.00;94.00;;;;;;5009817;28;20050;-82
2022/08/23 13:53:48;;;;;;;;;;;27.10;94.70;;;;;;5003776;28;20093;-82
2022/08/23 13:56:15;;;;;;;3.28;1.70;;;26.40;95.70;;;;;;5005285;28;19905;-81
2022/08/23 13:58:41;;;;;;;2.67;1.67;;;25.80;96.70;;;;;;5005021;28;20079;-80
2022/08/23 14:01:17;;;;;;;1.30;1.13;;;25.50;97.80;;;;;;5000536;28;20026;-81
2022/08/23 14:03:42;;;;;;;3.88;1.20;;;25.50;98.00;;;;;;5012506;28;20034;-81
2022/08/23 14:06:08;;;;;;;1.33;1.20;;;25.30;98.60;;;;;;5001056;28;20037;-80
2022/08/23 14:08:34;;;;;;;1.55;1.30;;;25.20;98.70;;;;;;4994165;28;20094;-81
2022/08/23 14:11:00;;;;;;;2.38;1.30;;;25.20;99.20;;;;;;5013168;28;20023;-80
2022/08/23 14:13:28;;;;;;;3.30;1.15;;;25.00;99.80;;;;;;4988358;28;20051;-80
2022/08/23 14:16:01;;;;;;;1.63;1.13;;;25.10;99.60;;;;;;5003802;28;20034;-81
2022/08/23 14:18:27;;;;;;;1.67;1.15;;;25.00;99.90;;;;;;4984584;28;20045;-81